Time;durP1;ratioP1;P1;durP2;ratioP2;P2;SDS_P1;SDS_P2;PMS_P1;PMS_P2;Temp;Humidity;BMP_temperature;BMP_pressure;BME280_temperature;BME280_humidity;BME280_pressure;Samples;Min_cycle;Max_cycle;Signal;HPM_P1;HPM_P2
2020/12/26 00:02:12;;;;;;;13.00;11.50;;;5.00;99.90;;;;;;5036011;28;20649;-71
2020/12/26 00:04:37;;;;;;;15.80;12.20;;;4.80;99.90;;;;;;5035811;28;20605;-71
2020/12/26 00:07:06;;;;;;;14.47;11.23;;;4.80;99.90;;;;;;5053786;28;20246;-70
2020/12/26 00:09:31;;;;;;;14.93;12.03;;;4.60;99.90;;;;;;5056082;28;20191;-71
2020/12/26 00:11:58;;;;;;;13.40;11.50;;;4.40;99.90;;;;;;5055737;28;20959;-71
2020/12/26 00:14:27;;;;;;;12.53;11.23;;;4.40;99.90;;;;;;5051835;28;20170;-70
2020/12/26 00:16:57;;;;;;;15.07;12.07;;;4.40;99.90;;;;;;5053339;28;20450;-70
2020/12/26 00:19:25;;;;;;;13.03;11.40;;;4.50;99.90;;;;;;5046604;28;20419;-72
2020/12/26 00:21:52;;;;;;;12.57;11.23;;;4.50;99.90;;;;;;5032534;28;20414;-71
2020/12/26 00:24:18;;;;;;;13.73;11.60;;;4.60;99.90;;;;;;5033446;28;20507;-71
2020/12/26 00:26:43;;;;;;;17.13;12.57;;;4.60;99.90;;;;;;5042315;28;20518;-70
2020/12/26 00:29:09;;;;;;;19.83;13.00;;;4.70;99.90;;;;;;5052720;28;20428;-71
2020/12/26 00:31:35;;;;;;;21.10;13.20;;;4.80;99.90;;;;;;5052993;28;20259;-71
2020/12/26 00:34:00;;;;;;;21.23;13.17;;;4.80;99.90;;;;;;5051994;28;20196;-71
2020/12/26 00:36:26;;;;;;;23.70;16.93;;;4.80;99.90;;;;;;5052362;28;20576;-71
2020/12/26 00:38:52;;;;;;;22.43;15.73;;;4.80;99.90;;;;;;5052476;28;20181;-71
2020/12/26 00:41:17;;;;;;;20.77;15.70;;;4.80;99.90;;;;;;5040185;28;20690;-71
2020/12/26 00:43:44;;;;;;;24.60;15.57;;;4.80;99.90;;;;;;5033002;28;20588;-70
2020/12/26 00:46:09;;;;;;;21.27;16.00;;;4.90;99.90;;;;;;5044579;28;20194;-70
2020/12/26 00:48:35;;;;;;;21.43;16.20;;;5.00;99.90;;;;;;5052186;28;20441;-71
2020/12/26 00:51:02;;;;;;;26.13;16.07;;;5.10;99.90;;;;;;5052175;28;20957;-69
2020/12/26 00:53:28;;;;;;;26.03;17.20;;;5.10;99.90;;;;;;5050902;28;20192;-71
2020/12/26 00:55:53;;;;;;;23.60;16.27;;;5.10;99.90;;;;;;5043833;28;20439;-71
2020/12/26 00:58:19;;;;;;;21.07;15.87;;;5.10;99.90;;;;;;5052553;28;20200;-71
2020/12/26 01:00:44;;;;;;;23.90;15.50;;;5.00;99.90;;;;;;5044903;28;20182;-70
2020/12/26 01:03:10;;;;;;;24.80;16.50;;;5.10;99.90;;;;;;5051256;28;20191;-71
2020/12/26 01:05:35;;;;;;;21.57;15.87;;;5.10;99.90;;;;;;5052467;28;20244;-70
2020/12/26 01:08:01;;;;;;;23.50;16.43;;;5.10;99.90;;;;;;5051183;28;20178;-70
2020/12/26 01:10:26;;;;;;;22.40;16.70;;;5.00;99.90;;;;;;5033199;28;20673;-70
2020/12/26 01:12:52;;;;;;;28.53;17.50;;;5.10;99.90;;;;;;5032880;28;20183;-68
2020/12/26 01:15:17;;;;;;;26.30;18.00;;;5.10;99.90;;;;;;5039767;28;20596;-71
2020/12/26 01:17:43;;;;;;;32.93;20.00;;;5.20;99.90;;;;;;5032908;28;20198;-71
2020/12/26 01:20:09;;;;;;;25.70;19.00;;;5.20;99.90;;;;;;5031746;28;20209;-70
2020/12/26 01:22:35;;;;;;;26.40;20.27;;;5.30;99.90;;;;;;5040311;28;20772;-70
2020/12/26 01:25:05;;;;;;;26.57;19.27;;;5.20;99.90;;;;;;5054406;28;20503;-70
2020/12/26 01:27:31;;;;;;;30.27;21.80;;;5.20;99.90;;;;;;5056226;28;20187;-70
2020/12/26 01:29:56;;;;;;;32.83;20.40;;;5.30;99.90;;;;;;5048507;28;20420;-70
2020/12/26 01:32:24;;;;;;;31.10;18.97;;;5.30;99.90;;;;;;5036461;28;20309;-70
2020/12/26 01:34:49;;;;;;;27.13;19.40;;;5.30;99.90;;;;;;5036256;28;20334;-70
2020/12/26 01:37:15;;;;;;;27.70;18.80;;;5.20;99.90;;;;;;5045956;28;21024;-70
2020/12/26 01:39:40;;;;;;;28.30;20.60;;;5.20;99.90;;;;;;5056328;28;20261;-70
2020/12/26 01:42:06;;;;;;;30.80;21.23;;;5.10;99.90;;;;;;5055979;28;20272;-70
2020/12/26 01:44:31;;;;;;;27.33;20.47;;;5.20;99.90;;;;;;5044156;28;20190;-70
2020/12/26 01:46:58;;;;;;;32.40;20.70;;;5.20;99.90;;;;;;5035183;28;20194;-70
2020/12/26 01:49:23;;;;;;;27.80;19.50;;;5.20;99.90;;;;;;5036350;28;20178;-70
2020/12/26 01:51:49;;;;;;;27.80;19.90;;;5.30;99.90;;;;;;5036735;28;20463;-70
2020/12/26 01:54:16;;;;;;;19.47;16.33;;;5.30;99.90;;;;;;5036126;28;20221;-70
2020/12/26 01:56:42;;;;;;;24.23;17.00;;;5.20;99.90;;;;;;5036260;28;20447;-70
2020/12/26 01:59:09;;;;;;;20.43;15.40;;;5.20;99.90;;;;;;5051630;28;20800;-69
2020/12/26 02:01:36;;;;;;;18.90;15.07;;;5.30;99.90;;;;;;5055845;28;20752;-70
2020/12/26 02:04:02;;;;;;;15.60;11.80;;;5.30;99.90;;;;;;5055516;28;20420;-70
2020/12/26 02:06:32;;;;;;;16.10;12.13;;;5.20;99.90;;;;;;5036924;28;20803;-71
2020/12/26 02:08:59;;;;;;;12.73;11.03;;;5.20;99.90;;;;;;5036522;28;20420;-71
2020/12/26 02:11:27;;;;;;;13.67;11.10;;;5.30;99.90;;;;;;5037244;28;20872;-71
2020/12/26 02:13:54;;;;;;;19.60;11.70;;;5.20;99.90;;;;;;5055226;28;20450;-70
2020/12/26 02:16:19;;;;;;;12.60;10.67;;;5.20;99.90;;;;;;5054820;28;20449;-70
2020/12/26 02:18:45;;;;;;;12.60;9.93;;;5.10;99.90;;;;;;5051411;28;20619;-70
2020/12/26 02:21:10;;;;;;;17.63;12.27;;;5.10;99.90;;;;;;5034567;28;20174;-70
2020/12/26 02:23:45;;;;;;;12.43;9.67;;;5.10;99.90;;;;;;5035809;28;20179;-70
2020/12/26 02:26:11;;;;;;;12.70;10.20;;;5.10;99.90;;;;;;5042783;28;20198;-71
2020/12/26 02:28:37;;;;;;;12.73;9.50;;;5.10;99.90;;;;;;5054948;28;20458;-70
2020/12/26 02:31:03;;;;;;;14.20;9.63;;;5.00;99.90;;;;;;5054779;28;20689;-70
2020/12/26 02:33:29;;;;;;;12.83;10.33;;;4.90;99.90;;;;;;5044804;28;20436;-70
2020/12/26 02:35:54;;;;;;;14.07;10.80;;;5.00;99.90;;;;;;5035413;28;20919;-71
2020/12/26 02:38:20;;;;;;;16.60;11.13;;;5.00;99.90;;;;;;5035495;28;20177;-71
2020/12/26 02:40:49;;;;;;;12.90;9.93;;;5.00;99.90;;;;;;5043817;28;20584;-71
2020/12/26 02:43:25;;;;;;;11.50;10.30;;;4.90;99.90;;;;;;5035406;28;20175;-71
2020/12/26 02:45:53;;;;;;;14.20;11.27;;;4.90;99.90;;;;;;5043412;28;20440;-70
2020/12/26 02:48:18;;;;;;;14.10;11.50;;;5.00;99.90;;;;;;5050000;28;20451;-72
2020/12/26 02:50:44;;;;;;;14.63;11.47;;;4.90;99.90;;;;;;5054493;28;20503;-71
2020/12/26 02:53:10;;;;;;;12.43;10.37;;;4.90;99.90;;;;;;5054279;28;20647;-71
2020/12/26 02:55:36;;;;;;;13.50;10.90;;;4.90;99.90;;;;;;5037355;28;20198;-71
2020/12/26 02:58:02;;;;;;;14.00;10.87;;;4.90;99.90;;;;;;5033556;28;20168;-71
2020/12/26 03:00:28;;;;;;;11.77;10.57;;;4.90;99.90;;;;;;5034175;28;20769;-69
2020/12/26 03:02:53;;;;;;;12.07;10.77;;;4.90;99.90;;;;;;5035316;28;20428;-69
2020/12/26 03:05:19;;;;;;;12.60;11.30;;;5.00;99.90;;;;;;5034601;28;20472;-70
2020/12/26 03:07:45;;;;;;;14.50;11.10;;;4.90;99.90;;;;;;5036830;28;20193;-70
2020/12/26 03:10:10;;;;;;;12.60;10.83;;;4.80;99.90;;;;;;5054329;28;20200;-70
2020/12/26 03:12:36;;;;;;;13.43;11.80;;;4.90;99.90;;;;;;5052749;28;20607;-70
2020/12/26 03:15:01;;;;;;;15.27;11.57;;;4.90;99.90;;;;;;5050425;28;20229;-71
2020/12/26 03:17:27;;;;;;;18.30;11.30;;;4.90;99.90;;;;;;5034815;28;20175;-70
2020/12/26 03:19:52;;;;;;;12.60;11.30;;;5.00;99.90;;;;;;5034815;28;20493;-70
2020/12/26 03:22:18;;;;;;;13.37;12.07;;;5.00;99.90;;;;;;5040287;28;20177;-70
2020/12/26 03:24:44;;;;;;;12.40;11.10;;;5.00;99.90;;;;;;5053710;28;20641;-71
2020/12/26 03:27:09;;;;;;;18.07;11.57;;;5.00;99.90;;;;;;5053629;28;20207;-70
2020/12/26 03:29:35;;;;;;;14.03;12.57;;;5.00;99.90;;;;;;5046389;28;20222;-70
2020/12/26 03:32:00;;;;;;;15.17;12.10;;;4.90;99.90;;;;;;5034390;28;20218;-70
2020/12/26 03:34:26;;;;;;;14.23;11.60;;;4.90;99.90;;;;;;5035172;28;20200;-70
2020/12/26 03:36:52;;;;;;;14.73;12.63;;;4.90;99.90;;;;;;5043590;28;20221;-71
2020/12/26 03:39:18;;;;;;;14.33;11.90;;;4.90;99.90;;;;;;5086980;28;20177;-70
2020/12/26 03:41:43;;;;;;;14.50;11.60;;;4.90;99.90;;;;;;5054813;28;20475;-70
2020/12/26 03:44:09;;;;;;;14.03;12.50;;;4.90;99.90;;;;;;5042430;28;20293;-70
2020/12/26 03:46:34;;;;;;;19.53;12.47;;;5.00;99.90;;;;;;5041441;28;20210;-71
2020/12/26 03:49:00;;;;;;;15.47;12.57;;;4.90;99.90;;;;;;5052954;28;20173;-70
2020/12/26 03:51:25;;;;;;;14.00;12.50;;;4.90;99.90;;;;;;5035142;28;20618;-71
2020/12/26 03:53:50;;;;;;;14.33;11.30;;;4.80;99.90;;;;;;5032483;28;20184;-70
2020/12/26 03:56:17;;;;;;;16.80;12.30;;;4.80;99.90;;;;;;5037594;28;20194;-70
2020/12/26 03:58:43;;;;;;;14.33;12.00;;;4.80;99.90;;;;;;5053213;28;20221;-69
2020/12/26 04:01:09;;;;;;;14.60;11.87;;;4.80;99.90;;;;;;5052878;28;20482;-70
2020/12/26 04:03:34;;;;;;;13.23;11.80;;;4.80;99.90;;;;;;5047326;28;20928;-70
2020/12/26 04:06:00;;;;;;;14.67;12.90;;;4.80;99.90;;;;;;5034032;28;20785;-70
2020/12/26 04:08:25;;;;;;;16.50;13.10;;;4.90;99.90;;;;;;5038448;28;20367;-70
2020/12/26 04:10:51;;;;;;;15.30;12.53;;;4.70;99.90;;;;;;5045255;28;20221;-70
2020/12/26 04:13:16;;;;;;;19.03;12.50;;;4.70;99.90;;;;;;5033949;28;20193;-70
2020/12/26 04:15:42;;;;;;;13.63;12.23;;;4.60;99.90;;;;;;5033473;28;20677;-71
2020/12/26 04:18:08;;;;;;;16.60;14.40;;;4.50;99.90;;;;;;5043049;28;20217;-70
2020/12/26 04:20:33;;;;;;;14.80;12.47;;;4.60;99.90;;;;;;5052957;28;20185;-70
2020/12/26 04:22:59;;;;;;;14.20;12.17;;;4.70;99.90;;;;;;5053127;28;20507;-70
2020/12/26 04:25:25;;;;;;;17.17;12.97;;;4.80;99.90;;;;;;5041322;28;20502;-69
2020/12/26 04:27:50;;;;;;;14.50;12.40;;;4.80;99.90;;;;;;5034013;28;20192;-70
2020/12/26 04:30:16;;;;;;;15.07;13.43;;;4.80;99.90;;;;;;5032349;28;20236;-70
2020/12/26 04:32:41;;;;;;;15.43;13.80;;;4.80;99.90;;;;;;5047189;28;20201;-71
2020/12/26 04:35:07;;;;;;;16.03;14.33;;;4.80;99.90;;;;;;5052305;28;20269;-70
2020/12/26 04:37:32;;;;;;;19.23;14.63;;;4.80;99.90;;;;;;5052479;28;20505;-70
2020/12/26 04:39:58;;;;;;;16.97;15.20;;;4.80;99.90;;;;;;5051157;28;20219;-70
2020/12/26 04:42:24;;;;;;;17.80;13.73;;;4.90;99.90;;;;;;5052393;28;20233;-70
2020/12/26 04:44:51;;;;;;;21.63;15.53;;;4.90;99.90;;;;;;5052270;28;20246;-71
2020/12/26 04:47:24;;;;;;;19.27;17.07;;;4.90;99.90;;;;;;5034395;28;20934;-70
2020/12/26 04:49:54;;;;;;;21.83;16.83;;;4.80;99.90;;;;;;5031918;28;20423;-70
2020/12/26 04:52:25;;;;;;;22.63;16.67;;;4.80;99.90;;;;;;5034573;28;20463;-71
2020/12/26 04:54:54;;;;;;;21.63;17.30;;;4.70;99.90;;;;;;5052265;28;20423;-70
2020/12/26 04:57:20;;;;;;;22.20;17.90;;;4.70;99.90;;;;;;5051427;28;20542;-70
2020/12/26 04:59:46;;;;;;;23.20;20.20;;;4.70;99.90;;;;;;5047299;28;20501;-70
2020/12/26 05:02:14;;;;;;;21.30;18.90;;;4.70;99.90;;;;;;5033079;28;20813;-70
2020/12/26 05:04:42;;;;;;;21.90;18.40;;;4.70;99.90;;;;;;5033025;28;20636;-70
2020/12/26 05:07:08;;;;;;;24.00;18.90;;;4.70;99.90;;;;;;5040348;28;20451;-70
2020/12/26 05:09:33;;;;;;;21.50;18.93;;;4.70;99.90;;;;;;5040911;28;20448;-70
2020/12/26 05:12:00;;;;;;;21.40;18.80;;;4.70;99.90;;;;;;5032637;28;20556;-70
2020/12/26 05:14:29;;;;;;;23.33;18.40;;;4.80;99.90;;;;;;5042210;28;20294;-71
2020/12/26 05:16:55;;;;;;;28.97;19.63;;;4.90;99.90;;;;;;5052037;28;20852;-71
2020/12/26 05:19:21;;;;;;;23.77;19.27;;;4.90;99.90;;;;;;5051966;28;20877;-70
2020/12/26 05:21:50;;;;;;;24.80;19.23;;;4.90;99.90;;;;;;5040372;28;20919;-70
2020/12/26 05:24:17;;;;;;;24.60;18.10;;;4.80;99.90;;;;;;5032716;28;20510;-71
2020/12/26 05:26:49;;;;;;;24.80;20.13;;;4.80;99.90;;;;;;5032526;28;21031;-70
2020/12/26 05:29:16;;;;;;;24.60;20.07;;;4.70;99.90;;;;;;5048576;28;20436;-70
2020/12/26 05:31:59;;;;;;;25.77;19.63;;;4.80;99.90;;;;;;5043189;28;20466;-70
2020/12/26 05:34:35;;;;;;;27.10;20.00;;;4.80;99.90;;;;;;5051056;28;20505;-70
2020/12/26 05:37:02;;;;;;;27.17;19.70;;;4.80;99.90;;;;;;5032735;28;20468;-70
2020/12/26 05:39:33;;;;;;;24.73;19.43;;;4.80;99.90;;;;;;5032574;28;20452;-70
2020/12/26 05:41:58;;;;;;;23.53;18.80;;;4.80;99.90;;;;;;5037368;28;20434;-70
2020/12/26 05:44:33;;;;;;;22.60;18.37;;;4.80;99.90;;;;;;5043253;28;20424;-70
2020/12/26 05:47:03;;;;;;;24.70;19.37;;;4.90;99.90;;;;;;5032685;28;20204;-71
2020/12/26 05:49:35;;;;;;;23.70;18.97;;;4.80;99.90;;;;;;5040963;28;20522;-70
2020/12/26 05:52:07;;;;;;;28.40;18.80;;;4.80;99.90;;;;;;5042407;28;21001;-70
2020/12/26 05:54:33;;;;;;;25.10;19.43;;;4.80;99.90;;;;;;5035875;28;20998;-70
2020/12/26 05:57:15;;;;;;;26.50;19.17;;;4.80;99.90;;;;;;5039732;28;20472;-70
2020/12/26 05:59:55;;;;;;;23.57;18.50;;;4.80;99.90;;;;;;5049773;28;20922;-70
2020/12/26 06:02:28;;;;;;;27.90;17.40;;;4.80;99.90;;;;;;5052174;28;20982;-71
2020/12/26 06:04:56;;;;;;;21.53;16.40;;;4.90;99.90;;;;;;5052186;28;20429;-70
2020/12/26 06:07:33;;;;;;;20.73;16.43;;;4.90;99.90;;;;;;5053227;28;20461;-70
2020/12/26 06:10:00;;;;;;;21.67;16.97;;;4.90;99.90;;;;;;5056291;28;20420;-70
2020/12/26 06:12:27;;;;;;;20.37;15.40;;;4.80;99.90;;;;;;5049308;28;20479;-70
2020/12/26 06:14:54;;;;;;;19.90;15.30;;;4.90;99.90;;;;;;5036343;28;20449;-71
2020/12/26 06:17:30;;;;;;;16.63;13.70;;;4.90;99.90;;;;;;5036660;28;20528;-71
2020/12/26 06:19:57;;;;;;;21.00;15.10;;;4.90;99.90;;;;;;5047314;28;20418;-70
2020/12/26 06:22:23;;;;;;;21.50;15.80;;;5.00;99.90;;;;;;5049488;28;20450;-70
2020/12/26 06:24:49;;;;;;;17.53;14.57;;;4.90;99.90;;;;;;5034960;28;20489;-70
2020/12/26 06:27:15;;;;;;;24.17;16.30;;;4.80;99.90;;;;;;5052917;28;21005;-70
2020/12/26 06:29:43;;;;;;;20.50;17.20;;;4.70;99.90;;;;;;5054960;28;20528;-70
2020/12/26 06:32:09;;;;;;;20.97;16.70;;;4.60;99.90;;;;;;5044047;28;20198;-70
2020/12/26 06:34:36;;;;;;;24.27;17.57;;;4.60;99.90;;;;;;5036303;28;20451;-70
2020/12/26 06:37:02;;;;;;;24.00;17.13;;;4.50;99.90;;;;;;5035293;28;20463;-70
2020/12/26 06:39:31;;;;;;;20.87;16.80;;;4.60;99.90;;;;;;5035417;28;20428;-70
2020/12/26 06:42:19;;;;;;;25.00;17.93;;;4.70;99.90;;;;;;5036588;28;20208;-70
2020/12/26 06:44:47;;;;;;;23.37;17.70;;;4.80;99.90;;;;;;5051253;28;20426;-71
2020/12/26 06:47:37;;;;;;;21.30;16.50;;;4.70;99.90;;;;;;5054563;28;20474;-70
2020/12/26 06:50:18;;;;;;;28.07;18.97;;;4.70;99.90;;;;;;5036019;28;21073;-71
2020/12/26 06:52:43;;;;;;;24.13;17.20;;;4.80;99.90;;;;;;5035250;28;20564;-70
2020/12/26 06:55:09;;;;;;;22.00;17.90;;;4.70;99.90;;;;;;5037477;28;20930;-71
2020/12/26 06:57:38;;;;;;;22.80;16.70;;;4.70;99.90;;;;;;5054533;28;20656;-71
2020/12/26 07:00:27;;;;;;;20.17;16.37;;;4.70;99.90;;;;;;5052858;28;20184;-70
2020/12/26 07:03:29;;;;;;;21.07;15.97;;;4.80;99.90;;;;;;5045725;28;20503;-70
2020/12/26 07:05:57;;;;;;;25.00;16.57;;;4.80;99.90;;;;;;5034751;28;20467;-70
2020/12/26 07:08:28;;;;;;;25.33;16.67;;;4.80;99.90;;;;;;5034883;28;20800;-70
2020/12/26 07:10:55;;;;;;;19.40;15.40;;;4.90;99.90;;;;;;5050796;28;20460;-71
2020/12/26 07:13:40;;;;;;;21.60;17.17;;;4.90;99.90;;;;;;5054343;28;20510;-70
2020/12/26 07:16:26;;;;;;;21.90;15.30;;;4.90;99.90;;;;;;5057570;28;20461;-70
2020/12/26 07:18:51;;;;;;;20.27;15.93;;;5.00;99.90;;;;;;5042227;28;20431;-71
2020/12/26 07:21:20;;;;;;;20.10;15.80;;;5.00;99.90;;;;;;5034971;28;20963;-70
2020/12/26 07:23:49;;;;;;;19.20;16.57;;;5.00;99.90;;;;;;5055822;28;20288;-70
2020/12/26 07:26:18;;;;;;;22.50;15.87;;;5.00;99.90;;;;;;5049875;28;20448;-72
2020/12/26 07:28:43;;;;;;;22.50;16.33;;;5.00;99.90;;;;;;5044007;28;20433;-70
2020/12/26 07:31:18;;;;;;;20.27;16.23;;;4.90;99.90;;;;;;5043500;28;20454;-70
2020/12/26 07:33:44;;;;;;;20.20;16.47;;;4.80;99.90;;;;;;5053515;28;20196;-70
2020/12/26 07:36:19;;;;;;;23.80;17.40;;;4.90;99.90;;;;;;5053473;28;20946;-69
2020/12/26 07:39:00;;;;;;;23.93;16.50;;;4.80;99.90;;;;;;5040065;28;20623;-70
2020/12/26 07:41:26;;;;;;;20.93;16.43;;;4.80;99.90;;;;;;5053589;28;20434;-71
2020/12/26 07:43:52;;;;;;;24.63;17.77;;;4.80;99.90;;;;;;5053352;28;20542;-70
2020/12/26 07:46:18;;;;;;;22.63;16.67;;;4.70;99.90;;;;;;5035594;28;20511;-70
2020/12/26 07:48:53;;;;;;;26.83;19.20;;;4.70;99.90;;;;;;5035625;28;20910;-71
2020/12/26 07:51:19;;;;;;;29.10;19.07;;;4.70;99.90;;;;;;5035775;28;20305;-70
2020/12/26 07:53:44;;;;;;;24.77;17.97;;;4.70;99.90;;;;;;5053041;28;20537;-70
2020/12/26 07:56:10;;;;;;;21.10;17.67;;;4.70;99.90;;;;;;5045139;28;20202;-71
2020/12/26 07:58:36;;;;;;;27.30;18.17;;;4.70;99.90;;;;;;5049777;28;20183;-70
2020/12/26 08:01:02;;;;;;;22.57;18.00;;;4.70;99.90;;;;;;5033987;28;20633;-71
2020/12/26 08:03:27;;;;;;;21.97;15.97;;;4.70;99.90;;;;;;5033554;28;20435;-71
2020/12/26 08:05:53;;;;;;;22.47;15.53;;;4.80;99.90;;;;;;5039069;28;20215;-71
2020/12/26 08:08:27;;;;;;;23.33;17.40;;;4.80;99.90;;;;;;5052560;28;20227;-70
2020/12/26 08:10:59;;;;;;;20.20;15.93;;;4.80;99.90;;;;;;5053074;28;20229;-70
2020/12/26 08:13:25;;;;;;;21.17;16.30;;;4.80;99.90;;;;;;5043288;28;20425;-70
2020/12/26 08:16:02;;;;;;;20.10;15.60;;;4.80;99.90;;;;;;5046642;28;20848;-70
2020/12/26 08:18:30;;;;;;;18.70;15.90;;;4.80;99.90;;;;;;5052514;28;20496;-71
2020/12/26 08:20:56;;;;;;;21.40;15.77;;;4.90;99.90;;;;;;5039405;28;20422;-70
2020/12/26 08:23:21;;;;;;;18.40;14.80;;;4.80;99.90;;;;;;5033556;28;20484;-71
2020/12/26 08:25:47;;;;;;;22.30;16.87;;;4.80;99.90;;;;;;5033400;28;20281;-70
2020/12/26 08:28:17;;;;;;;21.03;15.10;;;4.80;99.90;;;;;;5048727;28;20191;-71
2020/12/26 08:30:48;;;;;;;15.63;13.80;;;4.80;99.90;;;;;;5052322;28;20191;-70
2020/12/26 08:33:28;;;;;;;18.00;13.40;;;4.70;99.90;;;;;;5052628;28;20434;-71
2020/12/26 08:36:33;;;;;;;16.30;13.40;;;4.70;99.90;;;;;;5045879;28;20436;-70
2020/12/26 08:39:00;;;;;;;18.20;13.23;;;4.70;99.90;;;;;;5011181;28;20478;-71
2020/12/26 08:41:26;;;;;;;15.63;12.47;;;4.70;99.90;;;;;;5011018;28;20426;-70
2020/12/26 08:43:53;;;;;;;16.17;12.47;;;4.70;99.90;;;;;;5011131;28;20488;-71
2020/12/26 08:46:23;;;;;;;16.17;11.30;;;4.80;99.90;;;;;;5010996;28;20460;-71
2020/12/26 08:48:49;;;;;;;13.07;11.67;;;4.70;99.90;;;;;;5011338;28;20436;-70
2020/12/26 08:51:20;;;;;;;16.90;12.90;;;4.70;99.90;;;;;;5011013;28;20580;-71
2020/12/26 08:53:46;;;;;;;16.00;11.93;;;4.70;99.90;;;;;;5010407;28;20423;-70
2020/12/26 08:56:12;;;;;;;12.23;11.03;;;4.70;99.90;;;;;;5011020;28;20537;-71
2020/12/26 08:58:38;;;;;;;13.60;11.47;;;4.70;99.90;;;;;;4994426;28;20556;-70
2020/12/26 09:01:05;;;;;;;16.40;11.53;;;4.80;99.90;;;;;;5010595;28;20614;-71
2020/12/26 09:03:35;;;;;;;13.87;10.70;;;4.70;99.90;;;;;;5010494;28;20452;-69
2020/12/26 09:06:02;;;;;;;15.37;11.20;;;4.60;99.90;;;;;;5010434;28;20455;-70
2020/12/26 09:08:28;;;;;;;12.03;10.73;;;4.70;99.90;;;;;;5010495;28;20432;-71
2020/12/26 09:11:05;;;;;;;15.53;9.93;;;4.70;99.90;;;;;;5010483;28;20472;-71
2020/12/26 09:13:37;;;;;;;12.40;10.00;;;4.60;99.90;;;;;;5042791;28;20442;-70
2020/12/26 09:16:06;;;;;;;13.53;10.77;;;4.70;99.90;;;;;;5048410;28;20807;-71
2020/12/26 09:18:49;;;;;;;12.93;10.07;;;4.60;99.90;;;;;;5032945;28;20789;-70
2020/12/26 09:21:28;;;;;;;13.90;9.90;;;4.50;99.90;;;;;;5038125;28;20430;-71
2020/12/26 09:23:55;;;;;;;11.30;9.73;;;4.50;99.90;;;;;;5041077;28;20485;-71
2020/12/26 09:26:26;;;;;;;13.30;9.90;;;4.50;99.90;;;;;;5032710;28;20543;-71
2020/12/26 09:28:57;;;;;;;10.67;8.40;;;4.40;99.90;;;;;;5032794;28;20437;-71
2020/12/26 09:31:26;;;;;;;9.23;8.33;;;4.50;99.90;;;;;;5046662;28;20494;-71
2020/12/26 09:33:53;;;;;;;11.67;8.67;;;4.50;99.90;;;;;;5051495;28;20738;-70
2020/12/26 09:36:21;;;;;;;10.90;8.10;;;4.50;99.90;;;;;;5046230;28;20952;-71
2020/12/26 09:38:47;;;;;;;9.43;7.30;;;4.50;99.90;;;;;;5049162;28;20498;-71
2020/12/26 09:41:43;;;;;;;14.17;8.90;;;4.50;99.90;;;;;;5047618;28;20513;-71
2020/12/26 09:44:09;;;;;;;12.90;8.50;;;4.60;99.90;;;;;;5036864;28;20522;-70
2020/12/26 09:46:35;;;;;;;9.20;7.80;;;4.80;99.90;;;;;;5055723;28;20910;-70
2020/12/26 09:49:00;;;;;;;13.57;8.47;;;4.80;99.90;;;;;;5053298;28;20298;-70
2020/12/26 09:51:26;;;;;;;11.80;8.10;;;4.90;99.90;;;;;;5045549;28;20648;-71
2020/12/26 09:53:51;;;;;;;9.97;8.90;;;4.80;99.90;;;;;;5054952;28;20670;-72
2020/12/26 09:56:17;;;;;;;10.63;8.90;;;4.80;99.90;;;;;;5055512;28;20705;-70
2020/12/26 09:58:44;;;;;;;8.90;7.77;;;4.80;99.90;;;;;;5040297;28;20253;-70
2020/12/26 10:01:14;;;;;;;10.80;7.67;;;4.80;99.90;;;;;;5035988;28;20194;-70
2020/12/26 10:03:40;;;;;;;11.30;7.13;;;4.80;99.90;;;;;;5034739;28;20424;-71
2020/12/26 10:06:14;;;;;;;9.37;7.23;;;4.90;99.90;;;;;;5054212;28;20446;-70
2020/12/26 10:08:42;;;;;;;8.00;7.03;;;4.80;99.90;;;;;;5055298;28;20427;-70
2020/12/26 10:11:09;;;;;;;10.23;6.97;;;4.90;99.90;;;;;;5051297;28;20455;-70
2020/12/26 10:13:34;;;;;;;7.77;6.20;;;4.90;99.90;;;;;;5042185;28;20417;-71
2020/12/26 10:16:00;;;;;;;8.70;6.53;;;4.90;99.90;;;;;;5054664;28;20891;-70
2020/12/26 10:18:25;;;;;;;7.70;6.67;;;4.90;99.90;;;;;;5050626;28;20249;-70
2020/12/26 10:20:51;;;;;;;11.07;7.03;;;4.90;99.90;;;;;;5035977;28;20215;-71
2020/12/26 10:23:16;;;;;;;9.63;7.03;;;4.90;99.90;;;;;;5035738;28;20545;-71
2020/12/26 10:25:42;;;;;;;7.90;7.10;;;4.90;99.90;;;;;;5041458;28;20198;-70
2020/12/26 10:28:07;;;;;;;8.10;6.77;;;4.80;99.90;;;;;;5054672;28;20191;-70
2020/12/26 10:30:33;;;;;;;8.00;6.83;;;4.90;99.90;;;;;;5049966;28;20208;-74
2020/12/26 10:32:58;;;;;;;8.70;6.20;;;5.00;99.90;;;;;;5043396;28;20657;-70
2020/12/26 10:35:24;;;;;;;8.80;6.17;;;5.00;99.90;;;;;;5051208;28;20213;-70
2020/12/26 10:37:49;;;;;;;11.43;6.57;;;5.10;99.90;;;;;;5035538;28;20184;-70
2020/12/26 10:40:15;;;;;;;7.50;6.37;;;5.00;99.90;;;;;;5045489;28;20212;-70
2020/12/26 10:42:40;;;;;;;6.93;6.10;;;5.00;99.90;;;;;;5041686;28;20703;-71
2020/12/26 10:45:06;;;;;;;10.80;6.93;;;4.90;99.90;;;;;;5035663;28;20272;-70
2020/12/26 10:47:31;;;;;;;8.57;6.20;;;4.80;99.90;;;;;;5047565;28;20664;-70
2020/12/26 10:49:57;;;;;;;9.53;6.40;;;4.80;99.90;;;;;;5056828;28;20184;-71
2020/12/26 10:52:22;;;;;;;7.47;5.90;;;4.80;99.90;;;;;;5060219;28;20228;-70
2020/12/26 10:54:48;;;;;;;8.20;5.70;;;4.90;99.90;;;;;;5046231;28;20192;-71
2020/12/26 10:57:13;;;;;;;9.97;6.67;;;4.90;99.90;;;;;;5036496;28;20200;-70
2020/12/26 10:59:39;;;;;;;7.30;5.60;;;4.90;99.90;;;;;;5057879;28;20733;-71
2020/12/26 11:02:05;;;;;;;8.40;6.30;;;4.90;99.90;;;;;;5056693;28;20536;-70
2020/12/26 11:04:30;;;;;;;8.83;6.20;;;4.90;99.90;;;;;;5040309;28;20640;-70
2020/12/26 11:06:56;;;;;;;9.93;6.10;;;5.00;99.90;;;;;;5035346;28;20204;-71
2020/12/26 11:09:21;;;;;;;9.83;6.70;;;5.00;99.90;;;;;;5036255;28;20181;-71
2020/12/26 11:11:51;;;;;;;8.40;5.80;;;5.00;99.90;;;;;;5052868;28;20208;-71
2020/12/26 11:14:17;;;;;;;6.53;5.57;;;5.00;99.90;;;;;;5036526;28;20183;-71
2020/12/26 11:16:51;;;;;;;8.90;5.33;;;5.10;99.90;;;;;;5038774;28;20966;-70
2020/12/26 11:19:17;;;;;;;8.37;5.17;;;5.20;99.90;;;;;;5037399;28;20439;-71
2020/12/26 11:21:44;;;;;;;5.63;5.00;;;5.30;99.90;;;;;;5034817;28;20429;-71
2020/12/26 11:24:11;;;;;;;7.90;5.90;;;5.30;99.90;;;;;;5041873;28;20471;-71
2020/12/26 11:26:37;;;;;;;9.63;5.80;;;5.30;99.90;;;;;;5042749;28;20461;-70
2020/12/26 11:29:03;;;;;;;12.37;6.37;;;5.20;99.90;;;;;;5034492;28;20425;-70
2020/12/26 11:31:29;;;;;;;8.03;6.00;;;5.30;99.90;;;;;;5043737;28;20452;-70
2020/12/26 11:33:55;;;;;;;9.50;5.93;;;5.30;99.90;;;;;;5040411;28;20494;-71
2020/12/26 11:36:22;;;;;;;10.20;6.50;;;5.40;99.90;;;;;;5034422;28;20202;-70
2020/12/26 11:38:49;;;;;;;8.97;6.30;;;5.30;99.90;;;;;;5046492;28;20417;-70
2020/12/26 11:41:19;;;;;;;8.83;5.97;;;5.30;99.90;;;;;;5053813;28;20780;-71
2020/12/26 11:43:45;;;;;;;9.93;6.20;;;5.30;99.90;;;;;;5053907;28;20421;-70
2020/12/26 11:46:11;;;;;;;9.23;5.23;;;5.20;99.90;;;;;;5038860;28;20536;-70
2020/12/26 11:48:37;;;;;;;6.40;5.07;;;5.30;99.90;;;;;;5033988;28;20662;-71
2020/12/26 11:51:04;;;;;;;11.13;5.33;;;5.30;99.90;;;;;;5034210;28;20575;-71
2020/12/26 11:53:30;;;;;;;6.33;5.53;;;5.30;99.90;;;;;;5050650;28;20193;-71
2020/12/26 11:55:56;;;;;;;5.73;4.83;;;5.20;99.90;;;;;;5048525;28;20482;-71
2020/12/26 11:58:25;;;;;;;6.73;5.03;;;5.20;99.90;;;;;;5034276;28;20593;-71
2020/12/26 12:00:52;;;;;;;11.00;5.67;;;5.30;99.90;;;;;;5045857;28;20543;-70
2020/12/26 12:03:18;;;;;;;7.83;5.43;;;5.30;99.90;;;;;;5053495;28;20903;-71
2020/12/26 12:05:44;;;;;;;5.50;4.70;;;5.30;99.90;;;;;;5044075;28;20524;-71
2020/12/26 12:08:10;;;;;;;5.80;4.70;;;5.40;99.90;;;;;;5053331;28;20178;-71
2020/12/26 12:10:35;;;;;;;6.30;4.87;;;5.50;99.90;;;;;;5043661;28;20421;-71
2020/12/26 12:13:01;;;;;;;8.23;5.50;;;5.40;99.90;;;;;;5038247;28;20170;-70
2020/12/26 12:15:26;;;;;;;6.13;4.00;;;5.50;99.90;;;;;;5052593;28;20195;-70
2020/12/26 12:17:52;;;;;;;7.97;5.10;;;5.40;99.90;;;;;;5053081;28;20591;-70
2020/12/26 12:20:17;;;;;;;5.60;4.73;;;5.50;99.90;;;;;;5046552;28;20179;-70
2020/12/26 12:22:43;;;;;;;6.57;4.67;;;5.50;99.90;;;;;;5033787;28;20186;-71
2020/12/26 12:25:08;;;;;;;6.60;4.30;;;5.50;99.90;;;;;;5033338;28;20175;-70
2020/12/26 12:27:34;;;;;;;8.47;4.20;;;5.50;99.90;;;;;;5041627;28;20181;-70
2020/12/26 12:29:59;;;;;;;3.90;3.60;;;5.40;99.90;;;;;;5052799;28;20565;-71
2020/12/26 12:32:25;;;;;;;7.43;4.13;;;5.50;99.90;;;;;;5052726;28;20632;-70
2020/12/26 12:34:50;;;;;;;3.63;3.20;;;5.50;99.90;;;;;;5042022;28;20226;-71
2020/12/26 12:37:16;;;;;;;3.87;3.57;;;5.50;99.90;;;;;;5033404;28;20191;-70
2020/12/26 12:39:41;;;;;;;5.60;3.40;;;5.40;99.90;;;;;;5041290;28;20257;-71
2020/12/26 12:42:10;;;;;;;4.50;3.30;;;5.40;99.90;;;;;;5045190;28;20235;-71
2020/12/26 12:44:35;;;;;;;4.10;3.37;;;5.40;99.90;;;;;;5052188;28;20181;-71